Pagrindinis puslapis
METAR-TAF:

METAR-TAF

Oro uostai :

Dušanbė, Tadžikija

platuma: 38-33N, ilguma: 068-47E, Aukštis: 803 m

Dabartinis oras

Ataskaita buvo paskelbta 26 minutes, ne 23:30 UTC
Vėjas 2 kt iš Vakarų
Temperatūra 10°C
Drėgmė 87%
Slėgis 1017 hPa
Matomumas 10 km arba daugiau
Mažai debesys ne aukštis 6600 ft, Liūtiniai kamuoliniai debesys.
Išsisklaidę debesys ne aukštis 11000 ft

METAR: UTDD 052330Z 26001MPS 9999 FEW066CB SCT110 10/08 Q1017 R09/D NOSIG RMK QFE694/0926

Laikas: 04:56 (23:56 UTC)

Prognozė

Ataskaita buvo paskelbta 2 valandos ir 56 minutes, ne 21:00 UTC
Prognozė galioja nuo 05 metu 22 UTC su 06 metu 10 UTC
Vėjas 4 kt nuo kintamojo kryptimis
Matomumas: 6000 m
Išsisklaidę debesys ne aukštis 4000 ft, Liūtiniai kamuoliniai debesys.
Su prošvaistėmis ne aukštis 9000 ft
Tikimybė 40% :
Laikinai
nuo 05 metu 22 UTC su 06 metu 01 UTC
perkūnija

TAF: UTDD 052100Z 0522/0610 VRB02MPS 6000 SCT040CB BKN090 PROB40 TEMPO 0522/0601 TS

Orai ataskaitas ir orų prognozės (METAR, TAF).

turimą stotys yra geltonos ir raudonos taškus žemėlapyje.

Perkelti pele per norėdami pamatyti stoties vardą.

Tada spustelėkite, norėdami matyti oro stebėjimo ir prognozės.

Norėdami pakeisti žemėlapį: spustelėkite ant žalios mygtukų su juodo kryžiaus žemyn,; žalią mygtuką su brūkšneliu, jei norite nutolinti; arba žalių rodyklių gretimoms žemėlapius.


METAR-TAF: